sensor_id;sensor_type;location;lat;lon;timestamp;P1;durP1;ratioP1;P2;durP2;ratioP2
69150;SDS011;56257;52.196;13.870;2023-02-28T00:00:46;2.65;;;0.70;;
69150;SDS011;56257;52.196;13.870;2023-02-28T00:03:13;2.92;;;0.80;;
69150;SDS011;56257;52.196;13.870;2023-02-28T00:05:40;2.40;;;0.60;;
69150;SDS011;56257;52.196;13.870;2023-02-28T00:08:07;2.80;;;0.80;;
69150;SDS011;56257;52.196;13.870;2023-02-28T00:10:34;2.65;;;0.90;;
69150;SDS011;56257;52.196;13.870;2023-02-28T00:13:03;2.70;;;0.80;;
69150;SDS011;56257;52.196;13.870;2023-02-28T00:15:31;2.40;;;0.65;;
69150;SDS011;56257;52.196;13.870;2023-02-28T00:17:59;2.73;;;0.80;;
69150;SDS011;56257;52.196;13.870;2023-02-28T00:20:25;2.58;;;0.50;;
69150;SDS011;56257;52.196;13.870;2023-02-28T00:22:53;2.70;;;0.65;;
69150;SDS011;56257;52.196;13.870;2023-02-28T00:25:44;2.40;;;0.60;;
69150;SDS011;56257;52.196;13.870;2023-02-28T00:28:35;2.58;;;0.80;;
69150;SDS011;56257;52.196;13.870;2023-02-28T00:31:26;2.90;;;0.97;;
69150;SDS011;56257;52.196;13.870;2023-02-28T04:52:02;2.97;;;0.90;;
69150;SDS011;56257;52.196;13.870;2023-02-28T04:54:28;2.97;;;1.00;;
69150;SDS011;56257;52.196;13.870;2023-02-28T04:56:56;2.47;;;0.60;;
69150;SDS011;56257;52.196;13.870;2023-02-28T04:59:23;2.47;;;0.68;;
69150;SDS011;56257;52.196;13.870;2023-02-28T05:01:50;2.78;;;0.90;;
69150;SDS011;56257;52.196;13.870;2023-02-28T05:04:17;3.25;;;1.10;;
69150;SDS011;56257;52.196;13.870;2023-02-28T05:06:44;2.60;;;0.80;;
69150;SDS011;56257;52.196;13.870;2023-02-28T05:09:10;2.78;;;0.60;;
69150;SDS011;56257;52.196;13.870;2023-02-28T05:11:40;2.75;;;0.70;;
69150;SDS011;56257;52.196;13.870;2023-02-28T05:14:09;3.10;;;0.90;;
69150;SDS011;56257;52.196;13.870;2023-02-28T05:16:38;2.83;;;1.10;;
69150;SDS011;56257;52.196;13.870;2023-02-28T05:19:04;2.67;;;0.87;;
69150;SDS011;56257;52.196;13.870;2023-02-28T05:24:09;3.17;;;1.00;;
69150;SDS011;56257;52.196;13.870;2023-02-28T05:26:38;2.60;;;0.75;;
69150;SDS011;56257;52.196;13.870;2023-02-28T05:29:06;2.75;;;1.02;;
69150;SDS011;56257;52.196;13.870;2023-02-28T05:31:33;2.77;;;0.80;;
69150;SDS011;56257;52.196;13.870;2023-02-28T05:34:00;2.78;;;0.80;;
69150;SDS011;56257;52.196;13.870;2023-02-28T05:36:27;2.88;;;0.82;;
69150;SDS011;56257;52.196;13.870;2023-02-28T05:38:53;3.05;;;0.65;;
69150;SDS011;56257;52.196;13.870;2023-02-28T05:41:20;2.55;;;0.80;;
69150;SDS011;56257;52.196;13.870;2023-02-28T05:43:47;3.03;;;0.87;;
69150;SDS011;56257;52.196;13.870;2023-02-28T05:46:14;3.10;;;0.95;;
69150;SDS011;56257;52.196;13.870;2023-02-28T05:48:41;2.95;;;0.80;;
69150;SDS011;56257;52.196;13.870;2023-02-28T05:51:09;3.17;;;1.00;;
69150;SDS011;56257;52.196;13.870;2023-02-28T05:53:35;3.08;;;1.02;;
69150;SDS011;56257;52.196;13.870;2023-02-28T05:56:02;2.80;;;0.90;;
69150;SDS011;56257;52.196;13.870;2023-02-28T05:58:29;2.90;;;0.90;;
69150;SDS011;56257;52.196;13.870;2023-02-28T06:00:57;2.50;;;0.70;;
69150;SDS011;56257;52.196;13.870;2023-02-28T06:03:24;3.45;;;1.10;;
69150;SDS011;56257;52.196;13.870;2023-02-28T06:05:51;2.80;;;0.75;;
69150;SDS011;56257;52.196;13.870;2023-02-28T06:08:18;2.83;;;1.00;;
69150;SDS011;56257;52.196;13.870;2023-02-28T06:10:45;2.80;;;1.23;;
69150;SDS011;56257;52.196;13.870;2023-02-28T06:13:11;3.00;;;0.75;;
69150;SDS011;56257;52.196;13.870;2023-02-28T06:15:39;2.90;;;0.90;;
69150;SDS011;56257;52.196;13.870;2023-02-28T06:18:05;2.88;;;1.02;;
69150;SDS011;56257;52.196;13.870;2023-02-28T06:20:32;2.80;;;0.77;;
69150;SDS011;56257;52.196;13.870;2023-02-28T06:22:59;2.88;;;0.90;;
69150;SDS011;56257;52.196;13.870;2023-02-28T06:25:26;2.97;;;0.90;;
69150;SDS011;56257;52.196;13.870;2023-02-28T06:27:54;2.75;;;1.25;;
69150;SDS011;56257;52.196;13.870;2023-02-28T06:30:21;3.13;;;1.17;;
69150;SDS011;56257;52.196;13.870;2023-02-28T06:32:53;2.73;;;1.00;;
69150;SDS011;56257;52.196;13.870;2023-02-28T06:35:20;3.10;;;1.10;;
69150;SDS011;56257;52.196;13.870;2023-02-28T06:37:47;3.08;;;0.82;;
69150;SDS011;56257;52.196;13.870;2023-02-28T06:40:14;2.90;;;0.80;;
69150;SDS011;56257;52.196;13.870;2023-02-28T06:42:41;3.10;;;1.10;;
69150;SDS011;56257;52.196;13.870;2023-02-28T06:45:09;2.50;;;0.90;;
69150;SDS011;56257;52.196;13.870;2023-02-28T06:47:37;3.17;;;1.17;;
69150;SDS011;56257;52.196;13.870;2023-02-28T06:50:05;3.05;;;0.90;;
69150;SDS011;56257;52.196;13.870;2023-02-28T06:52:32;2.97;;;1.00;;
69150;SDS011;56257;52.196;13.870;2023-02-28T06:55:03;2.90;;;0.80;;
69150;SDS011;56257;52.196;13.870;2023-02-28T06:57:31;2.80;;;0.90;;
69150;SDS011;56257;52.196;13.870;2023-02-28T06:59:59;3.00;;;1.00;;
69150;SDS011;56257;52.196;13.870;2023-02-28T07:02:26;2.55;;;0.65;;
69150;SDS011;56257;52.196;13.870;2023-02-28T07:04:53;2.90;;;1.20;;
69150;SDS011;56257;52.196;13.870;2023-02-28T07:07:20;3.00;;;0.90;;
69150;SDS011;56257;52.196;13.870;2023-02-28T07:09:47;2.50;;;0.77;;
69150;SDS011;56257;52.196;13.870;2023-02-28T07:12:13;3.05;;;0.95;;
69150;SDS011;56257;52.196;13.870;2023-02-28T07:14:40;2.80;;;1.10;;
69150;SDS011;56257;52.196;13.870;2023-02-28T07:17:10;3.15;;;1.20;;
69150;SDS011;56257;52.196;13.870;2023-02-28T07:19:38;3.05;;;1.10;;
69150;SDS011;56257;52.196;13.870;2023-02-28T07:22:06;2.80;;;0.80;;
69150;SDS011;56257;52.196;13.870;2023-02-28T07:24:33;2.63;;;0.80;;
69150;SDS011;56257;52.196;13.870;2023-02-28T07:27:00;2.90;;;0.90;;
69150;SDS011;56257;52.196;13.870;2023-02-28T07:29:27;2.92;;;0.90;;
69150;SDS011;56257;52.196;13.870;2023-02-28T07:31:54;2.72;;;0.90;;
69150;SDS011;56257;52.196;13.870;2023-02-28T07:34:21;3.13;;;1.00;;
69150;SDS011;56257;52.196;13.870;2023-02-28T07:36:48;3.45;;;1.00;;
69150;SDS011;56257;52.196;13.870;2023-02-28T07:39:19;3.20;;;0.90;;
69150;SDS011;56257;52.196;13.870;2023-02-28T07:41:47;2.97;;;0.93;;
69150;SDS011;56257;52.196;13.870;2023-02-28T07:44:14;2.60;;;0.70;;
69150;SDS011;56257;52.196;13.870;2023-02-28T07:46:40;3.17;;;1.17;;
69150;SDS011;56257;52.196;13.870;2023-02-28T07:49:07;2.95;;;0.98;;
69150;SDS011;56257;52.196;13.870;2023-02-28T07:51:34;2.70;;;0.90;;
69150;SDS011;56257;52.196;13.870;2023-02-28T07:54:00;3.33;;;1.00;;
69150;SDS011;56257;52.196;13.870;2023-02-28T07:56:27;2.80;;;1.00;;
69150;SDS011;56257;52.196;13.870;2023-02-28T07:58:54;3.00;;;1.00;;
69150;SDS011;56257;52.196;13.870;2023-02-28T08:01:21;3.28;;;0.90;;
69150;SDS011;56257;52.196;13.870;2023-02-28T08:03:48;3.28;;;0.98;;
69150;SDS011;56257;52.196;13.870;2023-02-28T08:06:16;3.20;;;1.23;;
69150;SDS011;56257;52.196;13.870;2023-02-28T08:08:44;2.92;;;0.80;;
69150;SDS011;56257;52.196;13.870;2023-02-28T08:11:11;2.83;;;0.97;;
69150;SDS011;56257;52.196;13.870;2023-02-28T08:13:37;2.75;;;0.90;;
69150;SDS011;56257;52.196;13.870;2023-02-28T08:16:04;2.80;;;0.90;;
69150;SDS011;56257;52.196;13.870;2023-02-28T08:18:31;3.00;;;1.00;;
69150;SDS011;56257;52.196;13.870;2023-02-28T08:20:58;3.15;;;0.80;;
69150;SDS011;56257;52.196;13.870;2023-02-28T08:23:25;2.53;;;0.90;;
69150;SDS011;56257;52.196;13.870;2023-02-28T08:25:55;2.70;;;0.90;;
69150;SDS011;56257;52.196;13.870;2023-02-28T08:28:22;3.17;;;1.08;;
69150;SDS011;56257;52.196;13.870;2023-02-28T08:30:52;3.10;;;0.93;;
69150;SDS011;56257;52.196;13.870;2023-02-28T08:33:19;3.00;;;0.90;;
69150;SDS011;56257;52.196;13.870;2023-02-28T08:35:45;2.93;;;1.00;;
69150;SDS011;56257;52.196;13.870;2023-02-28T08:38:12;3.05;;;0.90;;
69150;SDS011;56257;52.196;13.870;2023-02-28T08:40:38;3.20;;;1.10;;
69150;SDS011;56257;52.196;13.870;2023-02-28T08:43:05;2.70;;;0.93;;
69150;SDS011;56257;52.196;13.870;2023-02-28T08:45:32;3.00;;;1.00;;
69150;SDS011;56257;52.196;13.870;2023-02-28T08:47:58;2.90;;;1.10;;
69150;SDS011;56257;52.196;13.870;2023-02-28T08:50:25;2.85;;;0.95;;
69150;SDS011;56257;52.196;13.870;2023-02-28T08:52:52;3.75;;;1.20;;
69150;SDS011;56257;52.196;13.870;2023-02-28T08:55:18;3.70;;;1.15;;
69150;SDS011;56257;52.196;13.870;2023-02-28T08:57:45;3.47;;;1.00;;
69150;SDS011;56257;52.196;13.870;2023-02-28T09:00:12;3.30;;;1.00;;
69150;SDS011;56257;52.196;13.870;2023-02-28T09:02:40;3.22;;;1.08;;
69150;SDS011;56257;52.196;13.870;2023-02-28T09:05:07;3.10;;;0.82;;
69150;SDS011;56257;52.196;13.870;2023-02-28T09:07:34;3.20;;;1.10;;
69150;SDS011;56257;52.196;13.870;2023-02-28T09:10:01;3.35;;;1.20;;
69150;SDS011;56257;52.196;13.870;2023-02-28T09:12:27;3.13;;;1.00;;
69150;SDS011;56257;52.196;13.870;2023-02-28T09:14:59;3.38;;;1.00;;
69150;SDS011;56257;52.196;13.870;2023-02-28T09:17:25;3.08;;;1.10;;
69150;SDS011;56257;52.196;13.870;2023-02-28T09:19:56;2.95;;;1.05;;
69150;SDS011;56257;52.196;13.870;2023-02-28T09:22:23;3.72;;;1.10;;
69150;SDS011;56257;52.196;13.870;2023-02-28T09:24:50;2.63;;;0.80;;
69150;SDS011;56257;52.196;13.870;2023-02-28T09:27:16;3.42;;;1.17;;
69150;SDS011;56257;52.196;13.870;2023-02-28T09:29:43;3.00;;;1.10;;
69150;SDS011;56257;52.196;13.870;2023-02-28T09:32:09;3.40;;;1.20;;
69150;SDS011;56257;52.196;13.870;2023-02-28T09:34:36;3.30;;;1.38;;
69150;SDS011;56257;52.196;13.870;2023-02-28T09:37:03;3.50;;;1.10;;
69150;SDS011;56257;52.196;13.870;2023-02-28T09:39:30;2.92;;;1.10;;
69150;SDS011;56257;52.196;13.870;2023-02-28T09:41:57;3.50;;;1.35;;
69150;SDS011;56257;52.196;13.870;2023-02-28T09:44:27;3.47;;;1.13;;
69150;SDS011;56257;52.196;13.870;2023-02-28T09:46:57;4.20;;;1.10;;
69150;SDS011;56257;52.196;13.870;2023-02-28T09:49:29;3.93;;;1.10;;
69150;SDS011;56257;52.196;13.870;2023-02-28T09:52:04;3.45;;;1.25;;
69150;SDS011;56257;52.196;13.870;2023-02-28T09:54:35;3.45;;;1.00;;
69150;SDS011;56257;52.196;13.870;2023-02-28T09:57:07;3.58;;;0.80;;
69150;SDS011;56257;52.196;13.870;2023-02-28T09:59:50;3.33;;;1.08;;
69150;SDS011;56257;52.196;13.870;2023-02-28T10:05:11;3.50;;;1.00;;
69150;SDS011;56257;52.196;13.870;2023-02-28T10:12:58;3.72;;;1.00;;
69150;SDS011;56257;52.196;13.870;2023-02-28T10:15:27;3.73;;;1.20;;
69150;SDS011;56257;52.196;13.870;2023-02-28T10:17:58;3.22;;;0.75;;
69150;SDS011;56257;52.196;13.870;2023-02-28T10:20:35;3.10;;;1.00;;
69150;SDS011;56257;52.196;13.870;2023-02-28T10:25:34;3.47;;;1.20;;
69150;SDS011;56257;52.196;13.870;2023-02-28T10:28:08;3.73;;;1.27;;
69150;SDS011;56257;52.196;13.870;2023-02-28T10:30:36;3.20;;;0.80;;
69150;SDS011;56257;52.196;13.870;2023-02-28T10:33:05;2.60;;;0.80;;
69150;SDS011;56257;52.196;13.870;2023-02-28T10:35:32;3.00;;;1.00;;
69150;SDS011;56257;52.196;13.870;2023-02-28T10:38:00;3.22;;;1.48;;
69150;SDS011;56257;52.196;13.870;2023-02-28T10:40:33;2.80;;;0.90;;
69150;SDS011;56257;52.196;13.870;2023-02-28T10:43:03;3.47;;;1.50;;
69150;SDS011;56257;52.196;13.870;2023-02-28T10:45:31;3.08;;;1.00;;
69150;SDS011;56257;52.196;13.870;2023-02-28T10:48:02;3.70;;;1.35;;
69150;SDS011;56257;52.196;13.870;2023-02-28T10:56:23;3.30;;;1.00;;
69150;SDS011;56257;52.196;13.870;2023-02-28T11:01:20;4.18;;;1.98;;
69150;SDS011;56257;52.196;13.870;2023-02-28T11:03:49;5.45;;;1.77;;
69150;SDS011;56257;52.196;13.870;2023-02-28T11:06:17;4.93;;;1.13;;
69150;SDS011;56257;52.196;13.870;2023-02-28T11:08:51;6.07;;;1.50;;
69150;SDS011;56257;52.196;13.870;2023-02-28T11:11:20;4.47;;;1.60;;
69150;SDS011;56257;52.196;13.870;2023-02-28T11:13:48;4.03;;;1.33;;
69150;SDS011;56257;52.196;13.870;2023-02-28T11:16:18;5.20;;;1.70;;
69150;SDS011;56257;52.196;13.870;2023-02-28T11:18:49;5.33;;;1.23;;
69150;SDS011;56257;52.196;13.870;2023-02-28T11:21:38;3.80;;;1.60;;
69150;SDS011;56257;52.196;13.870;2023-02-28T11:25:07;4.63;;;1.83;;
69150;SDS011;56257;52.196;13.870;2023-02-28T11:27:24;3.53;;;1.10;;
69150;SDS011;56257;52.196;13.870;2023-02-28T11:29:57;4.60;;;2.17;;
69150;SDS011;56257;52.196;13.870;2023-02-28T11:32:25;3.30;;;0.93;;
69150;SDS011;56257;52.196;13.870;2023-02-28T11:35:02;4.05;;;1.52;;
69150;SDS011;56257;52.196;13.870;2023-02-28T11:37:35;3.75;;;1.30;;
69150;SDS011;56257;52.196;13.870;2023-02-28T11:40:05;4.35;;;1.38;;
69150;SDS011;56257;52.196;13.870;2023-02-28T11:45:37;3.97;;;1.30;;
69150;SDS011;56257;52.196;13.870;2023-02-28T11:56:13;3.90;;;1.45;;
69150;SDS011;56257;52.196;13.870;2023-02-28T11:59:04;4.10;;;1.73;;
69150;SDS011;56257;52.196;13.870;2023-02-28T12:08:00;4.43;;;1.60;;
69150;SDS011;56257;52.196;13.870;2023-02-28T12:13:26;3.93;;;1.40;;
69150;SDS011;56257;52.196;13.870;2023-02-28T12:22:15;3.45;;;1.23;;
69150;SDS011;56257;52.196;13.870;2023-02-28T12:27:40;3.70;;;1.30;;
69150;SDS011;56257;52.196;13.870;2023-02-28T12:32:56;3.75;;;1.23;;
69150;SDS011;56257;52.196;13.870;2023-02-28T12:35:49;3.92;;;1.35;;
69150;SDS011;56257;52.196;13.870;2023-02-28T12:38:29;4.18;;;1.33;;
69150;SDS011;56257;52.196;13.870;2023-02-28T12:41:02;3.47;;;1.23;;
69150;SDS011;56257;52.196;13.870;2023-02-28T12:43:36;3.92;;;1.70;;
69150;SDS011;56257;52.196;13.870;2023-02-28T12:49:16;3.60;;;1.55;;
69150;SDS011;56257;52.196;13.870;2023-02-28T12:51:45;3.58;;;1.60;;
69150;SDS011;56257;52.196;13.870;2023-02-28T12:54:36;3.30;;;1.20;;
69150;SDS011;56257;52.196;13.870;2023-02-28T13:00:13;3.80;;;1.20;;
69150;SDS011;56257;52.196;13.870;2023-02-28T13:10:51;3.40;;;1.02;;
69150;SDS011;56257;52.196;13.870;2023-02-28T13:13:24;3.30;;;1.27;;
69150;SDS011;56257;52.196;13.870;2023-02-28T13:16:13;3.67;;;0.90;;
69150;SDS011;56257;52.196;13.870;2023-02-28T13:18:44;3.85;;;1.50;;
69150;SDS011;56257;52.196;13.870;2023-02-28T13:24:00;3.25;;;1.00;;
69150;SDS011;56257;52.196;13.870;2023-02-28T13:27:10;4.00;;;1.00;;
69150;SDS011;56257;52.196;13.870;2023-02-28T13:29:21;3.53;;;1.00;;
69150;SDS011;56257;52.196;13.870;2023-02-28T13:34:32;3.77;;;1.30;;
69150;SDS011;56257;52.196;13.870;2023-02-28T13:42:22;3.58;;;1.50;;
69150;SDS011;56257;52.196;13.870;2023-02-28T13:45:28;3.10;;;1.02;;
69150;SDS011;56257;52.196;13.870;2023-02-28T13:50:30;3.47;;;1.25;;
69150;SDS011;56257;52.196;13.870;2023-02-28T13:53:13;5.65;;;1.27;;
69150;SDS011;56257;52.196;13.870;2023-02-28T13:56:19;4.03;;;1.45;;
69150;SDS011;56257;52.196;13.870;2023-02-28T14:07:31;3.20;;;1.10;;
69150;SDS011;56257;52.196;13.870;2023-02-28T14:10:05;3.60;;;1.08;;
69150;SDS011;56257;52.196;13.870;2023-02-28T14:18:02;5.75;;;1.10;;
69150;SDS011;56257;52.196;13.870;2023-02-28T14:20:32;4.25;;;1.00;;
69150;SDS011;56257;52.196;13.870;2023-02-28T14:24:01;3.30;;;1.10;;
69150;SDS011;56257;52.196;13.870;2023-02-28T14:26:03;3.78;;;1.10;;
69150;SDS011;56257;52.196;13.870;2023-02-28T14:29:14;3.10;;;1.00;;
69150;SDS011;56257;52.196;13.870;2023-02-28T14:32:13;4.75;;;1.23;;
69150;SDS011;56257;52.196;13.870;2023-02-28T14:37:41;3.50;;;1.27;;
69150;SDS011;56257;52.196;13.870;2023-02-28T14:40:21;3.55;;;1.23;;
69150;SDS011;56257;52.196;13.870;2023-02-28T14:42:55;3.20;;;1.10;;
69150;SDS011;56257;52.196;13.870;2023-02-28T14:45:27;3.63;;;1.50;;
69150;SDS011;56257;52.196;13.870;2023-02-28T14:47:56;3.78;;;1.33;;
69150;SDS011;56257;52.196;13.870;2023-02-28T14:50:31;4.38;;;1.48;;
69150;SDS011;56257;52.196;13.870;2023-02-28T14:53:01;3.83;;;1.10;;
69150;SDS011;56257;52.196;13.870;2023-02-28T14:55:29;3.87;;;1.33;;
69150;SDS011;56257;52.196;13.870;2023-02-28T14:57:58;3.78;;;1.00;;
69150;SDS011;56257;52.196;13.870;2023-02-28T15:00:28;3.10;;;0.93;;
69150;SDS011;56257;52.196;13.870;2023-02-28T15:02:56;3.78;;;1.30;;
69150;SDS011;56257;52.196;13.870;2023-02-28T15:05:28;3.55;;;1.00;;
69150;SDS011;56257;52.196;13.870;2023-02-28T15:10:32;3.55;;;1.10;;
69150;SDS011;56257;52.196;13.870;2023-02-28T15:13:00;3.38;;;1.20;;
69150;SDS011;56257;52.196;13.870;2023-02-28T15:21:23;3.50;;;1.20;;
69150;SDS011;56257;52.196;13.870;2023-02-28T15:26:20;3.47;;;1.42;;
69150;SDS011;56257;52.196;13.870;2023-02-28T15:28:49;3.28;;;1.15;;
69150;SDS011;56257;52.196;13.870;2023-02-28T15:31:22;3.20;;;1.10;;
69150;SDS011;56257;52.196;13.870;2023-02-28T15:33:54;3.67;;;1.30;;
69150;SDS011;56257;52.196;13.870;2023-02-28T15:36:24;3.88;;;1.10;;
69150;SDS011;56257;52.196;13.870;2023-02-28T15:38:54;3.35;;;1.10;;
69150;SDS011;56257;52.196;13.870;2023-02-28T15:41:28;3.25;;;1.17;;
69150;SDS011;56257;52.196;13.870;2023-02-28T15:47:03;3.13;;;1.00;;
69150;SDS011;56257;52.196;13.870;2023-02-28T15:49:36;4.10;;;1.13;;
69150;SDS011;56257;52.196;13.870;2023-02-28T15:52:13;3.83;;;0.98;;
69150;SDS011;56257;52.196;13.870;2023-02-28T15:54:42;4.03;;;1.33;;
69150;SDS011;56257;52.196;13.870;2023-02-28T15:57:13;3.55;;;0.95;;
69150;SDS011;56257;52.196;13.870;2023-02-28T15:59:42;3.60;;;1.10;;
69150;SDS011;56257;52.196;13.870;2023-02-28T16:02:17;3.92;;;1.00;;
69150;SDS011;56257;52.196;13.870;2023-02-28T16:04:56;3.22;;;1.10;;
69150;SDS011;56257;52.196;13.870;2023-02-28T16:07:24;3.63;;;1.00;;
69150;SDS011;56257;52.196;13.870;2023-02-28T16:09:51;3.90;;;1.00;;
69150;SDS011;56257;52.196;13.870;2023-02-28T16:12:17;3.57;;;1.40;;
69150;SDS011;56257;52.196;13.870;2023-02-28T16:14:45;3.10;;;0.98;;
69150;SDS011;56257;52.196;13.870;2023-02-28T16:17:18;3.33;;;0.90;;
69150;SDS011;56257;52.196;13.870;2023-02-28T16:19:47;3.22;;;0.98;;
69150;SDS011;56257;52.196;13.870;2023-02-28T16:22:13;3.85;;;1.10;;
69150;SDS011;56257;52.196;13.870;2023-02-28T16:24:40;3.33;;;1.13;;
69150;SDS011;56257;52.196;13.870;2023-02-28T16:27:11;3.60;;;1.20;;
69150;SDS011;56257;52.196;13.870;2023-02-28T16:29:46;3.00;;;1.00;;
69150;SDS011;56257;52.196;13.870;2023-02-28T16:32:14;4.00;;;1.20;;
69150;SDS011;56257;52.196;13.870;2023-02-28T16:34:44;3.40;;;0.90;;
69150;SDS011;56257;52.196;13.870;2023-02-28T16:37:14;3.43;;;1.10;;
69150;SDS011;56257;52.196;13.870;2023-02-28T16:39:43;3.38;;;1.08;;
69150;SDS011;56257;52.196;13.870;2023-02-28T16:42:11;3.25;;;0.93;;
69150;SDS011;56257;52.196;13.870;2023-02-28T16:44:41;3.63;;;0.95;;
69150;SDS011;56257;52.196;13.870;2023-02-28T16:47:08;2.95;;;1.00;;
69150;SDS011;56257;52.196;13.870;2023-02-28T16:49:36;2.83;;;0.80;;
69150;SDS011;56257;52.196;13.870;2023-02-28T16:52:03;4.03;;;1.30;;
69150;SDS011;56257;52.196;13.870;2023-02-28T16:54:30;3.67;;;1.30;;
69150;SDS011;56257;52.196;13.870;2023-02-28T16:56:57;3.50;;;1.17;;
69150;SDS011;56257;52.196;13.870;2023-02-28T16:59:24;3.65;;;1.00;;
69150;SDS011;56257;52.196;13.870;2023-02-28T17:01:52;3.37;;;1.13;;
69150;SDS011;56257;52.196;13.870;2023-02-28T17:04:20;3.33;;;0.93;;
69150;SDS011;56257;52.196;13.870;2023-02-28T17:06:46;3.60;;;1.00;;
69150;SDS011;56257;52.196;13.870;2023-02-28T17:09:17;2.70;;;0.82;;
69150;SDS011;56257;52.196;13.870;2023-02-28T17:11:56;3.22;;;1.00;;
69150;SDS011;56257;52.196;13.870;2023-02-28T17:14:22;3.63;;;0.80;;
69150;SDS011;56257;52.196;13.870;2023-02-28T17:16:49;3.42;;;0.80;;
69150;SDS011;56257;52.196;13.870;2023-02-28T17:19:16;2.95;;;0.95;;
69150;SDS011;56257;52.196;13.870;2023-02-28T17:21:44;3.38;;;1.10;;
69150;SDS011;56257;52.196;13.870;2023-02-28T17:24:11;3.10;;;1.10;;
69150;SDS011;56257;52.196;13.870;2023-02-28T17:26:44;3.17;;;0.80;;
69150;SDS011;56257;52.196;13.870;2023-02-28T17:29:13;3.88;;;0.70;;
69150;SDS011;56257;52.196;13.870;2023-02-28T17:31:44;2.90;;;0.95;;
69150;SDS011;56257;52.196;13.870;2023-02-28T17:34:11;3.45;;;1.25;;
69150;SDS011;56257;52.196;13.870;2023-02-28T17:36:48;3.50;;;1.20;;
69150;SDS011;56257;52.196;13.870;2023-02-28T17:39:16;3.43;;;1.07;;
69150;SDS011;56257;52.196;13.870;2023-02-28T17:41:51;3.28;;;1.08;;
69150;SDS011;56257;52.196;13.870;2023-02-28T17:44:18;3.00;;;0.90;;
69150;SDS011;56257;52.196;13.870;2023-02-28T17:46:45;3.45;;;1.05;;
69150;SDS011;56257;52.196;13.870;2023-02-28T17:49:12;3.30;;;1.20;;
69150;SDS011;56257;52.196;13.870;2023-02-28T17:51:39;3.00;;;0.90;;
69150;SDS011;56257;52.196;13.870;2023-02-28T17:54:06;3.22;;;1.38;;
69150;SDS011;56257;52.196;13.870;2023-02-28T17:56:32;3.20;;;1.13;;
69150;SDS011;56257;52.196;13.870;2023-02-28T17:58:59;3.47;;;0.95;;
69150;SDS011;56257;52.196;13.870;2023-02-28T18:01:26;3.40;;;1.02;;
69150;SDS011;56257;52.196;13.870;2023-02-28T18:03:53;3.77;;;1.10;;
69150;SDS011;56257;52.196;13.870;2023-02-28T18:06:39;3.15;;;1.00;;
69150;SDS011;56257;52.196;13.870;2023-02-28T18:09:22;2.95;;;0.98;;
69150;SDS011;56257;52.196;13.870;2023-02-28T18:11:49;3.25;;;1.10;;
69150;SDS011;56257;52.196;13.870;2023-02-28T18:14:17;3.13;;;0.90;;
69150;SDS011;56257;52.196;13.870;2023-02-28T18:16:44;3.00;;;1.00;;
69150;SDS011;56257;52.196;13.870;2023-02-28T18:19:11;3.13;;;1.10;;
69150;SDS011;56257;52.196;13.870;2023-02-28T18:21:43;3.08;;;0.90;;
69150;SDS011;56257;52.196;13.870;2023-02-28T18:24:10;3.40;;;1.20;;
69150;SDS011;56257;52.196;13.870;2023-02-28T18:26:39;3.58;;;1.10;;
69150;SDS011;56257;52.196;13.870;2023-02-28T18:29:06;3.30;;;1.23;;
69150;SDS011;56257;52.196;13.870;2023-02-28T18:31:33;3.20;;;1.10;;
69150;SDS011;56257;52.196;13.870;2023-02-28T18:34:00;3.53;;;1.48;;
69150;SDS011;56257;52.196;13.870;2023-02-28T18:36:27;3.03;;;1.13;;
69150;SDS011;56257;52.196;13.870;2023-02-28T18:38:54;3.67;;;1.55;;
69150;SDS011;56257;52.196;13.870;2023-02-28T18:41:21;4.00;;;1.50;;
69150;SDS011;56257;52.196;13.870;2023-02-28T18:43:48;3.78;;;1.80;;
69150;SDS011;56257;52.196;13.870;2023-02-28T18:46:18;3.65;;;1.52;;
69150;SDS011;56257;52.196;13.870;2023-02-28T18:48:45;3.95;;;1.80;;
69150;SDS011;56257;52.196;13.870;2023-02-28T18:51:16;4.43;;;1.80;;
69150;SDS011;56257;52.196;13.870;2023-02-28T18:53:44;3.67;;;1.60;;
69150;SDS011;56257;52.196;13.870;2023-02-28T18:56:12;5.18;;;1.60;;
69150;SDS011;56257;52.196;13.870;2023-02-28T18:58:41;3.53;;;1.40;;
69150;SDS011;56257;52.196;13.870;2023-02-28T19:03:42;3.50;;;1.33;;
69150;SDS011;56257;52.196;13.870;2023-02-28T19:06:09;3.83;;;1.50;;
69150;SDS011;56257;52.196;13.870;2023-02-28T19:08:36;3.55;;;1.70;;
69150;SDS011;56257;52.196;13.870;2023-02-28T19:11:07;4.10;;;1.40;;
69150;SDS011;56257;52.196;13.870;2023-02-28T19:13:51;3.70;;;1.30;;
69150;SDS011;56257;52.196;13.870;2023-02-28T19:16:19;3.65;;;1.40;;
69150;SDS011;56257;52.196;13.870;2023-02-28T19:18:46;3.80;;;1.40;;
69150;SDS011;56257;52.196;13.870;2023-02-28T19:21:14;3.55;;;1.70;;
69150;SDS011;56257;52.196;13.870;2023-02-28T19:23:42;3.40;;;1.40;;
69150;SDS011;56257;52.196;13.870;2023-02-28T19:26:10;4.13;;;1.40;;
69150;SDS011;56257;52.196;13.870;2023-02-28T19:28:41;3.30;;;1.35;;
69150;SDS011;56257;52.196;13.870;2023-02-28T19:31:11;4.00;;;1.50;;
69150;SDS011;56257;52.196;13.870;2023-02-28T19:33:57;3.67;;;1.75;;
69150;SDS011;56257;52.196;13.870;2023-02-28T19:36:24;3.70;;;1.70;;
69150;SDS011;56257;52.196;13.870;2023-02-28T19:38:51;3.58;;;1.60;;
69150;SDS011;56257;52.196;13.870;2023-02-28T19:41:17;3.25;;;1.40;;
69150;SDS011;56257;52.196;13.870;2023-02-28T19:43:45;3.50;;;1.47;;
69150;SDS011;56257;52.196;13.870;2023-02-28T19:46:12;3.35;;;1.50;;
69150;SDS011;56257;52.196;13.870;2023-02-28T19:48:39;3.65;;;1.65;;
69150;SDS011;56257;52.196;13.870;2023-02-28T19:51:08;3.65;;;1.30;;
69150;SDS011;56257;52.196;13.870;2023-02-28T19:53:36;3.53;;;1.42;;
69150;SDS011;56257;52.196;13.870;2023-02-28T19:56:04;3.60;;;1.30;;
69150;SDS011;56257;52.196;13.870;2023-02-28T19:58:31;3.53;;;1.20;;
69150;SDS011;56257;52.196;13.870;2023-02-28T20:01:05;3.40;;;1.30;;
69150;SDS011;56257;52.196;13.870;2023-02-28T20:03:35;3.53;;;1.30;;
69150;SDS011;56257;52.196;13.870;2023-02-28T20:06:06;3.67;;;1.80;;
69150;SDS011;56257;52.196;13.870;2023-02-28T20:08:35;3.60;;;1.77;;
69150;SDS011;56257;52.196;13.870;2023-02-28T20:11:03;3.53;;;1.35;;
69150;SDS011;56257;52.196;13.870;2023-02-28T20:13:31;3.30;;;1.48;;
69150;SDS011;56257;52.196;13.870;2023-02-28T20:15:58;3.30;;;1.20;;
69150;SDS011;56257;52.196;13.870;2023-02-28T20:18:26;3.47;;;1.50;;
69150;SDS011;56257;52.196;13.870;2023-02-28T20:20:52;3.70;;;1.53;;
69150;SDS011;56257;52.196;13.870;2023-02-28T20:23:19;4.07;;;1.80;;
69150;SDS011;56257;52.196;13.870;2023-02-28T20:25:46;3.38;;;1.38;;
69150;SDS011;56257;52.196;13.870;2023-02-28T20:28:12;3.63;;;1.55;;
69150;SDS011;56257;52.196;13.870;2023-02-28T20:30:39;3.58;;;1.80;;
69150;SDS011;56257;52.196;13.870;2023-02-28T20:33:07;3.83;;;1.80;;
69150;SDS011;56257;52.196;13.870;2023-02-28T20:35:33;4.00;;;1.65;;
69150;SDS011;56257;52.196;13.870;2023-02-28T20:38:00;4.32;;;1.80;;
69150;SDS011;56257;52.196;13.870;2023-02-28T20:40:27;4.40;;;1.73;;
69150;SDS011;56257;52.196;13.870;2023-02-28T20:42:53;3.35;;;1.50;;
69150;SDS011;56257;52.196;13.870;2023-02-28T20:45:20;3.47;;;1.50;;
69150;SDS011;56257;52.196;13.870;2023-02-28T20:47:47;4.10;;;1.90;;
69150;SDS011;56257;52.196;13.870;2023-02-28T20:50:13;3.90;;;1.52;;
69150;SDS011;56257;52.196;13.870;2023-02-28T20:52:42;4.20;;;1.60;;
69150;SDS011;56257;52.196;13.870;2023-02-28T20:55:12;4.63;;;1.83;;
69150;SDS011;56257;52.196;13.870;2023-02-28T20:57:38;4.00;;;1.80;;
69150;SDS011;56257;52.196;13.870;2023-02-28T21:00:05;4.57;;;1.80;;
69150;SDS011;56257;52.196;13.870;2023-02-28T21:02:44;4.40;;;1.88;;